sensor_id;sensor_type;location;lat;lon;timestamp;temperature;humidity
3784;DHT22;1907;49.238;9.262;2022-12-08T00:01:39;2.10;99.90
3784;DHT22;1907;49.238;9.262;2022-12-08T00:04:06;2.10;99.90
3784;DHT22;1907;49.238;9.262;2022-12-08T00:06:37;2.20;99.90
3784;DHT22;1907;49.238;9.262;2022-12-08T00:12:10;2.30;99.90
3784;DHT22;1907;49.238;9.262;2022-12-08T00:14:40;2.30;99.90
3784;DHT22;1907;49.238;9.262;2022-12-08T00:17:07;2.30;99.90
3784;DHT22;1907;49.238;9.262;2022-12-08T00:19:34;2.30;99.90
3784;DHT22;1907;49.238;9.262;2022-12-08T00:22:00;2.30;99.90
3784;DHT22;1907;49.238;9.262;2022-12-08T00:24:30;2.40;99.90
3784;DHT22;1907;49.238;9.262;2022-12-08T00:26:56;2.40;99.90
3784;DHT22;1907;49.238;9.262;2022-12-08T00:29:22;2.40;99.90
3784;DHT22;1907;49.238;9.262;2022-12-08T00:31:47;2.40;99.90
3784;DHT22;1907;49.238;9.262;2022-12-08T00:34:14;2.40;99.90
3784;DHT22;1907;49.238;9.262;2022-12-08T00:36:40;2.30;99.90
3784;DHT22;1907;49.238;9.262;2022-12-08T00:39:06;2.30;99.90
3784;DHT22;1907;49.238;9.262;2022-12-08T00:41:31;2.20;99.90
3784;DHT22;1907;49.238;9.262;2022-12-08T00:44:17;2.10;99.90
3784;DHT22;1907;49.238;9.262;2022-12-08T00:46:44;2.10;99.90
3784;DHT22;1907;49.238;9.262;2022-12-08T00:49:10;2.10;99.90
3784;DHT22;1907;49.238;9.262;2022-12-08T00:51:36;2.00;99.90
3784;DHT22;1907;49.238;9.262;2022-12-08T00:54:02;2.00;99.90
3784;DHT22;1907;49.238;9.262;2022-12-08T00:56:28;2.00;99.90
3784;DHT22;1907;49.238;9.262;2022-12-08T00:58:53;2.00;99.90
3784;DHT22;1907;49.238;9.262;2022-12-08T01:01:19;2.00;99.90
3784;DHT22;1907;49.238;9.262;2022-12-08T01:03:45;2.10;99.90
3784;DHT22;1907;49.238;9.262;2022-12-08T01:06:11;2.10;99.90
3784;DHT22;1907;49.238;9.262;2022-12-08T01:08:37;2.10;99.90
3784;DHT22;1907;49.238;9.262;2022-12-08T01:11:05;2.20;99.90
3784;DHT22;1907;49.238;9.262;2022-12-08T01:13:31;2.30;99.90
3784;DHT22;1907;49.238;9.262;2022-12-08T01:15:56;2.30;99.90
3784;DHT22;1907;49.238;9.262;2022-12-08T01:18:22;2.40;99.90
3784;DHT22;1907;49.238;9.262;2022-12-08T01:20:47;2.40;99.90
3784;DHT22;1907;49.238;9.262;2022-12-08T01:23:13;2.40;99.90
3784;DHT22;1907;49.238;9.262;2022-12-08T01:25:39;2.40;99.90
3784;DHT22;1907;49.238;9.262;2022-12-08T01:28:04;2.50;99.90
3784;DHT22;1907;49.238;9.262;2022-12-08T01:30:30;2.50;99.90
3784;DHT22;1907;49.238;9.262;2022-12-08T01:32:56;2.50;99.90
3784;DHT22;1907;49.238;9.262;2022-12-08T01:35:22;2.50;99.90
3784;DHT22;1907;49.238;9.262;2022-12-08T01:37:48;2.40;99.90
3784;DHT22;1907;49.238;9.262;2022-12-08T01:40:15;2.40;99.90
3784;DHT22;1907;49.238;9.262;2022-12-08T01:42:40;2.40;99.90
3784;DHT22;1907;49.238;9.262;2022-12-08T01:45:13;2.40;99.90
3784;DHT22;1907;49.238;9.262;2022-12-08T01:47:42;2.40;99.90
3784;DHT22;1907;49.238;9.262;2022-12-08T01:50:10;2.40;99.90
3784;DHT22;1907;49.238;9.262;2022-12-08T01:52:40;2.30;99.90
3784;DHT22;1907;49.238;9.262;2022-12-08T01:55:12;2.30;99.90
3784;DHT22;1907;49.238;9.262;2022-12-08T01:57:48;2.30;99.90
3784;DHT22;1907;49.238;9.262;2022-12-08T02:00:16;2.30;99.90
3784;DHT22;1907;49.238;9.262;2022-12-08T02:05:30;2.40;99.90
3784;DHT22;1907;49.238;9.262;2022-12-08T02:07:57;2.40;99.90
3784;DHT22;1907;49.238;9.262;2022-12-08T02:10:28;2.30;99.90
3784;DHT22;1907;49.238;9.262;2022-12-08T02:12:54;2.30;99.90
3784;DHT22;1907;49.238;9.262;2022-12-08T02:15:28;2.30;99.90
3784;DHT22;1907;49.238;9.262;2022-12-08T02:26:36;2.30;99.90
3784;DHT22;1907;49.238;9.262;2022-12-08T02:35:24;2.20;99.90
3784;DHT22;1907;49.238;9.262;2022-12-08T02:38:21;2.10;99.90
3784;DHT22;1907;49.238;9.262;2022-12-08T02:44:11;2.10;99.90
3784;DHT22;1907;49.238;9.262;2022-12-08T02:46:37;2.00;99.90
3784;DHT22;1907;49.238;9.262;2022-12-08T02:49:05;2.00;99.90
3784;DHT22;1907;49.238;9.262;2022-12-08T02:51:31;2.00;99.90
3784;DHT22;1907;49.238;9.262;2022-12-08T02:53:57;1.90;99.90
3784;DHT22;1907;49.238;9.262;2022-12-08T02:59:31;1.90;99.90
3784;DHT22;1907;49.238;9.262;2022-12-08T03:07:27;1.90;99.90
3784;DHT22;1907;49.238;9.262;2022-12-08T03:10:11;1.80;99.90
3784;DHT22;1907;49.238;9.262;2022-12-08T03:12:45;1.80;99.90
3784;DHT22;1907;49.238;9.262;2022-12-08T03:15:15;1.80;99.90
3784;DHT22;1907;49.238;9.262;2022-12-08T03:17:45;1.80;99.90
3784;DHT22;1907;49.238;9.262;2022-12-08T03:20:17;1.80;99.90
3784;DHT22;1907;49.238;9.262;2022-12-08T03:22:45;1.80;99.90
3784;DHT22;1907;49.238;9.262;2022-12-08T03:25:13;1.80;99.90
3784;DHT22;1907;49.238;9.262;2022-12-08T03:31:31;1.70;99.90
3784;DHT22;1907;49.238;9.262;2022-12-08T03:33:59;1.70;99.90
3784;DHT22;1907;49.238;9.262;2022-12-08T03:36:25;1.70;99.90
3784;DHT22;1907;49.238;9.262;2022-12-08T03:38:52;1.70;99.90
3784;DHT22;1907;49.238;9.262;2022-12-08T03:41:19;1.70;99.90
3784;DHT22;1907;49.238;9.262;2022-12-08T03:43:49;1.70;99.90
3784;DHT22;1907;49.238;9.262;2022-12-08T03:46:16;1.70;99.90
3784;DHT22;1907;49.238;9.262;2022-12-08T03:48:42;1.70;99.90
3784;DHT22;1907;49.238;9.262;2022-12-08T03:51:08;1.60;99.90
3784;DHT22;1907;49.238;9.262;2022-12-08T04:00:18;1.60;99.90
3784;DHT22;1907;49.238;9.262;2022-12-08T04:02:44;1.60;99.90
3784;DHT22;1907;49.238;9.262;2022-12-08T04:05:09;1.60;99.90
3784;DHT22;1907;49.238;9.262;2022-12-08T04:07:35;1.60;99.90
3784;DHT22;1907;49.238;9.262;2022-12-08T04:10:00;1.60;99.90
3784;DHT22;1907;49.238;9.262;2022-12-08T04:12:26;1.60;99.90
3784;DHT22;1907;49.238;9.262;2022-12-08T04:14:51;1.60;99.90
3784;DHT22;1907;49.238;9.262;2022-12-08T04:17:20;1.70;99.90
3784;DHT22;1907;49.238;9.262;2022-12-08T04:19:45;1.70;99.90
3784;DHT22;1907;49.238;9.262;2022-12-08T04:22:11;1.70;99.90
3784;DHT22;1907;49.238;9.262;2022-12-08T04:24:37;1.70;99.90
3784;DHT22;1907;49.238;9.262;2022-12-08T04:27:02;1.70;99.90
3784;DHT22;1907;49.238;9.262;2022-12-08T04:29:28;1.70;99.90
3784;DHT22;1907;49.238;9.262;2022-12-08T04:31:53;1.70;99.90
3784;DHT22;1907;49.238;9.262;2022-12-08T04:34:19;1.70;99.90
3784;DHT22;1907;49.238;9.262;2022-12-08T04:36:44;1.70;99.90
3784;DHT22;1907;49.238;9.262;2022-12-08T04:39:10;1.70;99.90
3784;DHT22;1907;49.238;9.262;2022-12-08T04:41:35;1.70;99.90
3784;DHT22;1907;49.238;9.262;2022-12-08T04:44:01;1.80;99.90
3784;DHT22;1907;49.238;9.262;2022-12-08T04:46:26;1.80;99.90
3784;DHT22;1907;49.238;9.262;2022-12-08T04:48:52;1.90;99.90
3784;DHT22;1907;49.238;9.262;2022-12-08T04:51:19;1.90;99.90
3784;DHT22;1907;49.238;9.262;2022-12-08T04:53:45;2.00;99.90
3784;DHT22;1907;49.238;9.262;2022-12-08T04:56:16;2.00;99.90
3784;DHT22;1907;49.238;9.262;2022-12-08T04:58:42;2.10;99.90
3784;DHT22;1907;49.238;9.262;2022-12-08T05:01:08;2.10;99.90
3784;DHT22;1907;49.238;9.262;2022-12-08T05:03:34;2.00;99.90
3784;DHT22;1907;49.238;9.262;2022-12-08T05:05:59;2.10;99.90
3784;DHT22;1907;49.238;9.262;2022-12-08T05:08:25;2.10;99.90
3784;DHT22;1907;49.238;9.262;2022-12-08T05:10:51;2.10;99.90
3784;DHT22;1907;49.238;9.262;2022-12-08T05:13:17;2.20;99.90
3784;DHT22;1907;49.238;9.262;2022-12-08T05:15:43;2.20;99.90
3784;DHT22;1907;49.238;9.262;2022-12-08T05:18:08;2.20;99.90
3784;DHT22;1907;49.238;9.262;2022-12-08T05:20:34;2.20;99.90
3784;DHT22;1907;49.238;9.262;2022-12-08T05:23:00;2.20;99.90
3784;DHT22;1907;49.238;9.262;2022-12-08T05:29:11;2.30;99.90
3784;DHT22;1907;49.238;9.262;2022-12-08T05:31:36;2.30;99.90
3784;DHT22;1907;49.238;9.262;2022-12-08T05:34:02;2.30;99.90
3784;DHT22;1907;49.238;9.262;2022-12-08T05:36:28;2.30;99.90
3784;DHT22;1907;49.238;9.262;2022-12-08T05:38:56;2.20;99.90
3784;DHT22;1907;49.238;9.262;2022-12-08T05:41:23;2.30;99.90
3784;DHT22;1907;49.238;9.262;2022-12-08T05:43:48;2.30;99.90
3784;DHT22;1907;49.238;9.262;2022-12-08T05:46:14;2.30;99.90
3784;DHT22;1907;49.238;9.262;2022-12-08T05:48:41;2.30;99.90
3784;DHT22;1907;49.238;9.262;2022-12-08T05:51:18;2.30;99.90
3784;DHT22;1907;49.238;9.262;2022-12-08T05:53:45;2.30;99.90
3784;DHT22;1907;49.238;9.262;2022-12-08T05:56:11;2.30;99.90
3784;DHT22;1907;49.238;9.262;2022-12-08T05:58:36;2.30;99.90
3784;DHT22;1907;49.238;9.262;2022-12-08T06:01:02;2.30;99.90
3784;DHT22;1907;49.238;9.262;2022-12-08T06:03:28;2.30;99.90
3784;DHT22;1907;49.238;9.262;2022-12-08T06:05:53;2.30;99.90
3784;DHT22;1907;49.238;9.262;2022-12-08T06:08:19;2.30;99.90
3784;DHT22;1907;49.238;9.262;2022-12-08T06:10:45;2.30;99.90
3784;DHT22;1907;49.238;9.262;2022-12-08T06:13:11;2.40;99.90
3784;DHT22;1907;49.238;9.262;2022-12-08T06:15:38;2.40;99.90
3784;DHT22;1907;49.238;9.262;2022-12-08T06:18:04;2.40;99.90
3784;DHT22;1907;49.238;9.262;2022-12-08T06:20:30;2.40;99.90
3784;DHT22;1907;49.238;9.262;2022-12-08T06:22:55;2.40;99.90
3784;DHT22;1907;49.238;9.262;2022-12-08T06:25:21;2.40;99.90
3784;DHT22;1907;49.238;9.262;2022-12-08T06:27:47;2.50;99.90
3784;DHT22;1907;49.238;9.262;2022-12-08T06:30:13;2.50;99.90
3784;DHT22;1907;49.238;9.262;2022-12-08T06:32:38;2.50;99.90
3784;DHT22;1907;49.238;9.262;2022-12-08T06:35:04;2.50;99.90
3784;DHT22;1907;49.238;9.262;2022-12-08T06:37:30;2.50;99.90
3784;DHT22;1907;49.238;9.262;2022-12-08T06:39:56;2.50;99.90
3784;DHT22;1907;49.238;9.262;2022-12-08T06:42:21;2.50;99.90
3784;DHT22;1907;49.238;9.262;2022-12-08T06:45:06;2.60;99.90
3784;DHT22;1907;49.238;9.262;2022-12-08T06:47:32;2.60;99.90
3784;DHT22;1907;49.238;9.262;2022-12-08T06:49:57;2.60;99.90
3784;DHT22;1907;49.238;9.262;2022-12-08T06:52:23;2.60;99.90
3784;DHT22;1907;49.238;9.262;2022-12-08T06:54:49;2.60;99.90
3784;DHT22;1907;49.238;9.262;2022-12-08T06:57:14;2.60;99.90
3784;DHT22;1907;49.238;9.262;2022-12-08T06:59:40;2.60;99.90
3784;DHT22;1907;49.238;9.262;2022-12-08T07:02:05;2.60;99.90
3784;DHT22;1907;49.238;9.262;2022-12-08T07:04:31;2.60;99.90
3784;DHT22;1907;49.238;9.262;2022-12-08T07:06:57;2.60;99.90
3784;DHT22;1907;49.238;9.262;2022-12-08T07:09:22;2.60;99.90
3784;DHT22;1907;49.238;9.262;2022-12-08T07:11:48;2.60;99.90
3784;DHT22;1907;49.238;9.262;2022-12-08T07:14:14;2.70;99.90
3784;DHT22;1907;49.238;9.262;2022-12-08T07:16:39;2.70;99.90
3784;DHT22;1907;49.238;9.262;2022-12-08T07:19:05;2.70;99.90
3784;DHT22;1907;49.238;9.262;2022-12-08T07:21:31;2.70;99.90
3784;DHT22;1907;49.238;9.262;2022-12-08T07:23:56;2.70;99.90
3784;DHT22;1907;49.238;9.262;2022-12-08T07:26:22;2.80;99.90
3784;DHT22;1907;49.238;9.262;2022-12-08T07:28:48;2.80;99.90
3784;DHT22;1907;49.238;9.262;2022-12-08T07:31:19;2.80;99.90
3784;DHT22;1907;49.238;9.262;2022-12-08T07:33:45;2.80;99.90
3784;DHT22;1907;49.238;9.262;2022-12-08T07:36:11;2.80;99.90
3784;DHT22;1907;49.238;9.262;2022-12-08T07:38:37;2.80;99.90
3784;DHT22;1907;49.238;9.262;2022-12-08T07:41:03;2.80;99.90
3784;DHT22;1907;49.238;9.262;2022-12-08T07:43:28;2.80;99.90
3784;DHT22;1907;49.238;9.262;2022-12-08T07:45:54;2.90;99.90
3784;DHT22;1907;49.238;9.262;2022-12-08T07:48:20;2.90;99.90
3784;DHT22;1907;49.238;9.262;2022-12-08T07:50:46;2.90;99.90
3784;DHT22;1907;49.238;9.262;2022-12-08T07:53:12;2.90;99.90
3784;DHT22;1907;49.238;9.262;2022-12-08T07:55:41;3.00;99.90
3784;DHT22;1907;49.238;9.262;2022-12-08T07:58:08;3.00;99.90
3784;DHT22;1907;49.238;9.262;2022-12-08T08:00:34;3.00;99.90
3784;DHT22;1907;49.238;9.262;2022-12-08T08:02:59;3.00;99.90
3784;DHT22;1907;49.238;9.262;2022-12-08T08:05:25;3.10;99.90
3784;DHT22;1907;49.238;9.262;2022-12-08T08:07:51;3.10;99.90
3784;DHT22;1907;49.238;9.262;2022-12-08T08:10:17;3.10;99.90
3784;DHT22;1907;49.238;9.262;2022-12-08T08:12:42;3.20;99.90
3784;DHT22;1907;49.238;9.262;2022-12-08T08:15:08;3.20;99.90
3784;DHT22;1907;49.238;9.262;2022-12-08T08:17:35;3.20;99.90
3784;DHT22;1907;49.238;9.262;2022-12-08T08:20:03;3.30;99.90
3784;DHT22;1907;49.238;9.262;2022-12-08T08:22:31;3.30;99.90
3784;DHT22;1907;49.238;9.262;2022-12-08T08:24:57;3.30;99.90
3784;DHT22;1907;49.238;9.262;2022-12-08T08:27:23;3.30;99.90
3784;DHT22;1907;49.238;9.262;2022-12-08T08:29:49;3.30;99.90
3784;DHT22;1907;49.238;9.262;2022-12-08T08:32:15;3.30;99.90
3784;DHT22;1907;49.238;9.262;2022-12-08T08:34:41;3.30;99.90
3784;DHT22;1907;49.238;9.262;2022-12-08T08:37:07;3.30;99.90
3784;DHT22;1907;49.238;9.262;2022-12-08T08:39:32;3.30;99.90
3784;DHT22;1907;49.238;9.262;2022-12-08T08:41:58;3.20;99.90
3784;DHT22;1907;49.238;9.262;2022-12-08T08:44:23;3.10;99.90
3784;DHT22;1907;49.238;9.262;2022-12-08T08:46:49;3.10;99.90
3784;DHT22;1907;49.238;9.262;2022-12-08T08:49:15;3.10;99.90
3784;DHT22;1907;49.238;9.262;2022-12-08T08:51:41;3.10;99.90
3784;DHT22;1907;49.238;9.262;2022-12-08T08:54:07;3.20;99.90
3784;DHT22;1907;49.238;9.262;2022-12-08T08:56:32;3.20;99.90
3784;DHT22;1907;49.238;9.262;2022-12-08T08:58:58;3.20;99.90
3784;DHT22;1907;49.238;9.262;2022-12-08T09:01:26;3.20;99.90
3784;DHT22;1907;49.238;9.262;2022-12-08T09:03:52;3.20;99.90
3784;DHT22;1907;49.238;9.262;2022-12-08T09:06:18;3.20;99.90
3784;DHT22;1907;49.238;9.262;2022-12-08T09:08:45;3.30;99.90
3784;DHT22;1907;49.238;9.262;2022-12-08T09:11:11;3.30;99.90
3784;DHT22;1907;49.238;9.262;2022-12-08T09:13:37;3.30;99.90
3784;DHT22;1907;49.238;9.262;2022-12-08T09:16:04;3.30;99.90
3784;DHT22;1907;49.238;9.262;2022-12-08T09:18:31;3.30;99.90
3784;DHT22;1907;49.238;9.262;2022-12-08T09:20:59;3.30;99.90
3784;DHT22;1907;49.238;9.262;2022-12-08T09:23:27;3.40;99.90
3784;DHT22;1907;49.238;9.262;2022-12-08T09:25:53;3.40;99.90
3784;DHT22;1907;49.238;9.262;2022-12-08T09:28:18;3.40;99.90
3784;DHT22;1907;49.238;9.262;2022-12-08T09:30:44;3.50;99.90
3784;DHT22;1907;49.238;9.262;2022-12-08T09:33:09;3.50;99.90
3784;DHT22;1907;49.238;9.262;2022-12-08T09:35:35;3.60;99.90
3784;DHT22;1907;49.238;9.262;2022-12-08T09:38:00;3.60;99.90
3784;DHT22;1907;49.238;9.262;2022-12-08T09:40:27;3.60;99.90
3784;DHT22;1907;49.238;9.262;2022-12-08T09:43:09;3.70;99.90
3784;DHT22;1907;49.238;9.262;2022-12-08T09:45:42;3.70;99.90
3784;DHT22;1907;49.238;9.262;2022-12-08T09:48:15;3.80;99.90
3784;DHT22;1907;49.238;9.262;2022-12-08T09:50:54;3.80;99.90
3784;DHT22;1907;49.238;9.262;2022-12-08T09:53:23;3.90;99.90
3784;DHT22;1907;49.238;9.262;2022-12-08T09:55:58;3.90;99.90
3784;DHT22;1907;49.238;9.262;2022-12-08T10:01:00;4.00;99.90
3784;DHT22;1907;49.238;9.262;2022-12-08T10:03:27;4.00;99.90
3784;DHT22;1907;49.238;9.262;2022-12-08T10:06:06;4.10;99.90
3784;DHT22;1907;49.238;9.262;2022-12-08T10:11:31;4.20;99.90
3784;DHT22;1907;49.238;9.262;2022-12-08T10:14:22;4.30;99.90
3784;DHT22;1907;49.238;9.262;2022-12-08T10:16:50;4.40;99.90
3784;DHT22;1907;49.238;9.262;2022-12-08T10:19:22;4.60;99.90
3784;DHT22;1907;49.238;9.262;2022-12-08T10:21:48;4.70;99.90
3784;DHT22;1907;49.238;9.262;2022-12-08T10:24:37;5.00;99.90
3784;DHT22;1907;49.238;9.262;2022-12-08T10:27:09;5.20;99.90
3784;DHT22;1907;49.238;9.262;2022-12-08T10:29:40;5.40;99.90
3784;DHT22;1907;49.238;9.262;2022-12-08T10:32:15;5.50;99.90
3784;DHT22;1907;49.238;9.262;2022-12-08T10:35:07;5.60;99.90
3784;DHT22;1907;49.238;9.262;2022-12-08T10:37:33;5.70;99.90
3784;DHT22;1907;49.238;9.262;2022-12-08T10:40:11;5.80;99.90
3784;DHT22;1907;49.238;9.262;2022-12-08T10:42:40;5.80;99.90
3784;DHT22;1907;49.238;9.262;2022-12-08T10:47:42;5.80;99.90
3784;DHT22;1907;49.238;9.262;2022-12-08T10:52:56;5.90;99.90
3784;DHT22;1907;49.238;9.262;2022-12-08T10:55:22;5.90;99.90
3784;DHT22;1907;49.238;9.262;2022-12-08T10:57:48;6.00;99.90
3784;DHT22;1907;49.238;9.262;2022-12-08T11:00:20;6.00;99.90
3784;DHT22;1907;49.238;9.262;2022-12-08T11:05:20;6.10;99.90
3784;DHT22;1907;49.238;9.262;2022-12-08T11:07:49;6.00;99.90
3784;DHT22;1907;49.238;9.262;2022-12-08T11:10:18;6.10;99.90
3784;DHT22;1907;49.238;9.262;2022-12-08T11:12:44;6.10;99.90
3784;DHT22;1907;49.238;9.262;2022-12-08T11:15:15;6.10;99.90
3784;DHT22;1907;49.238;9.262;2022-12-08T11:17:40;6.00;99.90
3784;DHT22;1907;49.238;9.262;2022-12-08T11:22:41;6.00;99.90
3784;DHT22;1907;49.238;9.262;2022-12-08T11:27:37;5.90;99.90
3784;DHT22;1907;49.238;9.262;2022-12-08T11:30:18;5.80;99.90
3784;DHT22;1907;49.238;9.262;2022-12-08T11:32:47;5.90;99.90
3784;DHT22;1907;49.238;9.262;2022-12-08T11:35:33;5.90;99.90
3784;DHT22;1907;49.238;9.262;2022-12-08T11:38:12;5.80;99.90
3784;DHT22;1907;49.238;9.262;2022-12-08T11:40:40;5.80;99.90
3784;DHT22;1907;49.238;9.262;2022-12-08T11:45:48;5.80;99.90
3784;DHT22;1907;49.238;9.262;2022-12-08T11:48:28;5.80;99.90
3784;DHT22;1907;49.238;9.262;2022-12-08T11:56:37;5.80;99.90
3784;DHT22;1907;49.238;9.262;2022-12-08T12:01:56;5.70;99.90
3784;DHT22;1907;49.238;9.262;2022-12-08T12:04:24;5.70;99.90
3784;DHT22;1907;49.238;9.262;2022-12-08T12:18:44;5.50;99.90
3784;DHT22;1907;49.238;9.262;2022-12-08T12:21:33;5.50;99.90
3784;DHT22;1907;49.238;9.262;2022-12-08T12:24:05;5.40;99.90
3784;DHT22;1907;49.238;9.262;2022-12-08T12:26:34;5.50;99.90
3784;DHT22;1907;49.238;9.262;2022-12-08T12:29:16;5.50;99.90
3784;DHT22;1907;49.238;9.262;2022-12-08T12:31:47;5.50;99.90
3784;DHT22;1907;49.238;9.262;2022-12-08T12:34:21;5.40;99.90
3784;DHT22;1907;49.238;9.262;2022-12-08T12:39:20;5.40;99.90
3784;DHT22;1907;49.238;9.262;2022-12-08T12:41:53;5.30;99.90
3784;DHT22;1907;49.238;9.262;2022-12-08T12:46:58;5.40;99.90
3784;DHT22;1907;49.238;9.262;2022-12-08T12:57:24;5.50;99.90
3784;DHT22;1907;49.238;9.262;2022-12-08T13:02:37;5.50;99.90
3784;DHT22;1907;49.238;9.262;2022-12-08T13:08:01;5.60;99.90
3784;DHT22;1907;49.238;9.262;2022-12-08T13:10:34;5.60;99.90
3784;DHT22;1907;49.238;9.262;2022-12-08T13:13:16;5.60;99.90
3784;DHT22;1907;49.238;9.262;2022-12-08T13:15:52;5.60;99.90
3784;DHT22;1907;49.238;9.262;2022-12-08T13:21:12;5.70;99.90
3784;DHT22;1907;49.238;9.262;2022-12-08T13:29:03;5.80;99.90
3784;DHT22;1907;49.238;9.262;2022-12-08T13:34:18;5.80;99.90
3784;DHT22;1907;49.238;9.262;2022-12-08T13:39:52;5.80;99.90
3784;DHT22;1907;49.238;9.262;2022-12-08T13:42:29;5.70;99.90
3784;DHT22;1907;49.238;9.262;2022-12-08T13:45:02;5.80;99.90
3784;DHT22;1907;49.238;9.262;2022-12-08T13:47:33;5.80;99.90
3784;DHT22;1907;49.238;9.262;2022-12-08T13:50:21;5.80;99.90
3784;DHT22;1907;49.238;9.262;2022-12-08T13:53:00;5.80;99.90
3784;DHT22;1907;49.238;9.262;2022-12-08T13:55:39;5.80;99.90
3784;DHT22;1907;49.238;9.262;2022-12-08T13:58:06;5.80;99.90
3784;DHT22;1907;49.238;9.262;2022-12-08T14:00:40;5.80;99.90
3784;DHT22;1907;49.238;9.262;2022-12-08T14:03:10;5.80;99.90
3784;DHT22;1907;49.238;9.262;2022-12-08T14:05:39;5.70;99.90
3784;DHT22;1907;49.238;9.262;2022-12-08T14:08:16;5.70;99.90
3784;DHT22;1907;49.238;9.262;2022-12-08T14:10:42;5.70;99.90
3784;DHT22;1907;49.238;9.262;2022-12-08T14:13:10;5.60;99.90
3784;DHT22;1907;49.238;9.262;2022-12-08T14:15:38;5.60;99.90
3784;DHT22;1907;49.238;9.262;2022-12-08T14:18:05;5.60;99.90
3784;DHT22;1907;49.238;9.262;2022-12-08T14:20:33;5.60;99.90
3784;DHT22;1907;49.238;9.262;2022-12-08T14:22:58;5.60;99.90
3784;DHT22;1907;49.238;9.262;2022-12-08T14:25:26;5.60;99.90
3784;DHT22;1907;49.238;9.262;2022-12-08T14:28:00;5.60;99.90
3784;DHT22;1907;49.238;9.262;2022-12-08T14:30:33;5.50;99.90
3784;DHT22;1907;49.238;9.262;2022-12-08T14:33:02;5.50;99.90
3784;DHT22;1907;49.238;9.262;2022-12-08T14:35:34;5.50;99.90
3784;DHT22;1907;49.238;9.262;2022-12-08T14:38:03;5.40;99.90
3784;DHT22;1907;49.238;9.262;2022-12-08T14:45:32;5.40;99.90
3784;DHT22;1907;49.238;9.262;2022-12-08T14:48:18;5.40;99.90
3784;DHT22;1907;49.238;9.262;2022-12-08T14:53:18;5.40;99.90
3784;DHT22;1907;49.238;9.262;2022-12-08T14:55:47;5.40;99.90
3784;DHT22;1907;49.238;9.262;2022-12-08T14:58:26;5.30;99.90
3784;DHT22;1907;49.238;9.262;2022-12-08T15:00:55;5.30;99.90
3784;DHT22;1907;49.238;9.262;2022-12-08T15:03:28;5.30;99.90
3784;DHT22;1907;49.238;9.262;2022-12-08T15:05:56;5.30;99.90
3784;DHT22;1907;49.238;9.262;2022-12-08T15:08:22;5.30;99.90
3784;DHT22;1907;49.238;9.262;2022-12-08T15:13:48;5.20;99.90
3784;DHT22;1907;49.238;9.262;2022-12-08T15:16:29;5.20;99.90
3784;DHT22;1907;49.238;9.262;2022-12-08T15:19:15;5.20;99.90
3784;DHT22;1907;49.238;9.262;2022-12-08T15:21:42;5.10;99.90
3784;DHT22;1907;49.238;9.262;2022-12-08T15:24:13;5.00;99.90
3784;DHT22;1907;49.238;9.262;2022-12-08T15:26:47;5.00;99.90
3784;DHT22;1907;49.238;9.262;2022-12-08T15:29:26;5.00;99.90
3784;DHT22;1907;49.238;9.262;2022-12-08T15:31:55;5.00;99.90
3784;DHT22;1907;49.238;9.262;2022-12-08T15:34:20;5.00;99.90
3784;DHT22;1907;49.238;9.262;2022-12-08T15:36:48;5.00;99.90
3784;DHT22;1907;49.238;9.262;2022-12-08T15:39:23;4.90;99.90
3784;DHT22;1907;49.238;9.262;2022-12-08T15:41:50;4.90;99.90
3784;DHT22;1907;49.238;9.262;2022-12-08T15:44:16;4.90;99.90
3784;DHT22;1907;49.238;9.262;2022-12-08T15:46:41;4.80;99.90
3784;DHT22;1907;49.238;9.262;2022-12-08T15:49:15;4.90;99.90
3784;DHT22;1907;49.238;9.262;2022-12-08T15:51:41;4.90;99.90
3784;DHT22;1907;49.238;9.262;2022-12-08T15:54:07;4.90;99.90
3784;DHT22;1907;49.238;9.262;2022-12-08T15:56:33;4.90;99.90
3784;DHT22;1907;49.238;9.262;2022-12-08T15:58:58;4.90;99.90
3784;DHT22;1907;49.238;9.262;2022-12-08T16:01:24;4.90;99.90
3784;DHT22;1907;49.238;9.262;2022-12-08T16:03:50;4.90;99.90
3784;DHT22;1907;49.238;9.262;2022-12-08T16:06:18;4.90;99.90
3784;DHT22;1907;49.238;9.262;2022-12-08T16:08:44;4.90;99.90
3784;DHT22;1907;49.238;9.262;2022-12-08T16:11:10;4.90;99.90
3784;DHT22;1907;49.238;9.262;2022-12-08T16:13:54;4.90;99.90
3784;DHT22;1907;49.238;9.262;2022-12-08T16:16:27;4.90;99.90
3784;DHT22;1907;49.238;9.262;2022-12-08T16:18:53;4.80;99.90
3784;DHT22;1907;49.238;9.262;2022-12-08T16:21:18;4.80;99.90
3784;DHT22;1907;49.238;9.262;2022-12-08T16:23:44;4.80;99.90
3784;DHT22;1907;49.238;9.262;2022-12-08T16:26:14;4.80;99.90
3784;DHT22;1907;49.238;9.262;2022-12-08T16:28:41;4.80;99.90
3784;DHT22;1907;49.238;9.262;2022-12-08T16:31:07;4.80;99.90
3784;DHT22;1907;49.238;9.262;2022-12-08T16:33:33;4.80;99.90
3784;DHT22;1907;49.238;9.262;2022-12-08T16:35:59;4.80;99.90
3784;DHT22;1907;49.238;9.262;2022-12-08T16:38:25;4.80;99.90
3784;DHT22;1907;49.238;9.262;2022-12-08T16:40:50;4.80;99.90
3784;DHT22;1907;49.238;9.262;2022-12-08T16:43:34;4.80;99.90
3784;DHT22;1907;49.238;9.262;2022-12-08T16:46:01;4.70;99.90
3784;DHT22;1907;49.238;9.262;2022-12-08T16:48:27;4.70;99.90
3784;DHT22;1907;49.238;9.262;2022-12-08T16:50:53;4.60;99.90
3784;DHT22;1907;49.238;9.262;2022-12-08T16:53:19;4.60;99.90
3784;DHT22;1907;49.238;9.262;2022-12-08T16:55:46;4.60;99.90
3784;DHT22;1907;49.238;9.262;2022-12-08T16:58:12;4.60;99.90
3784;DHT22;1907;49.238;9.262;2022-12-08T17:00:37;4.60;99.90
3784;DHT22;1907;49.238;9.262;2022-12-08T17:03:04;4.70;99.90
3784;DHT22;1907;49.238;9.262;2022-12-08T17:05:32;4.60;99.90
3784;DHT22;1907;49.238;9.262;2022-12-08T17:07:58;4.60;99.90
3784;DHT22;1907;49.238;9.262;2022-12-08T17:10:26;4.60;99.90
3784;DHT22;1907;49.238;9.262;2022-12-08T17:12:52;4.60;99.90
3784;DHT22;1907;49.238;9.262;2022-12-08T17:15:20;4.60;99.90
3784;DHT22;1907;49.238;9.262;2022-12-08T17:17:46;4.60;99.90
3784;DHT22;1907;49.238;9.262;2022-12-08T17:20:14;4.60;99.90
3784;DHT22;1907;49.238;9.262;2022-12-08T17:22:40;4.60;99.90
3784;DHT22;1907;49.238;9.262;2022-12-08T17:25:06;4.60;99.90
3784;DHT22;1907;49.238;9.262;2022-12-08T17:27:32;4.60;99.90
3784;DHT22;1907;49.238;9.262;2022-12-08T17:29:57;4.50;99.90
3784;DHT22;1907;49.238;9.262;2022-12-08T17:32:23;4.50;99.90
3784;DHT22;1907;49.238;9.262;2022-12-08T17:34:49;4.50;99.90
3784;DHT22;1907;49.238;9.262;2022-12-08T17:37:15;4.40;99.90
3784;DHT22;1907;49.238;9.262;2022-12-08T17:39:41;4.40;99.90
3784;DHT22;1907;49.238;9.262;2022-12-08T17:42:07;4.40;99.90
3784;DHT22;1907;49.238;9.262;2022-12-08T17:44:33;4.40;99.90
3784;DHT22;1907;49.238;9.262;2022-12-08T17:47:00;4.40;99.90
3784;DHT22;1907;49.238;9.262;2022-12-08T17:49:27;4.40;99.90
3784;DHT22;1907;49.238;9.262;2022-12-08T17:51:56;4.40;99.90
3784;DHT22;1907;49.238;9.262;2022-12-08T17:54:23;4.30;99.90
3784;DHT22;1907;49.238;9.262;2022-12-08T17:56:49;4.30;99.90
3784;DHT22;1907;49.238;9.262;2022-12-08T17:59:15;4.30;99.90
3784;DHT22;1907;49.238;9.262;2022-12-08T18:01:41;4.20;99.90
3784;DHT22;1907;49.238;9.262;2022-12-08T18:04:08;4.20;99.90
3784;DHT22;1907;49.238;9.262;2022-12-08T18:06:35;4.20;99.90
3784;DHT22;1907;49.238;9.262;2022-12-08T18:09:02;4.20;99.90
3784;DHT22;1907;49.238;9.262;2022-12-08T18:11:28;4.20;99.90
3784;DHT22;1907;49.238;9.262;2022-12-08T18:13:55;4.10;99.90
3784;DHT22;1907;49.238;9.262;2022-12-08T18:16:22;4.00;99.90
3784;DHT22;1907;49.238;9.262;2022-12-08T18:18:49;4.00;99.90
3784;DHT22;1907;49.238;9.262;2022-12-08T18:21:15;4.00;99.90
3784;DHT22;1907;49.238;9.262;2022-12-08T18:23:42;3.90;99.90
3784;DHT22;1907;49.238;9.262;2022-12-08T18:26:10;3.90;99.90
3784;DHT22;1907;49.238;9.262;2022-12-08T18:28:36;3.80;99.90
3784;DHT22;1907;49.238;9.262;2022-12-08T18:31:08;3.90;99.90
3784;DHT22;1907;49.238;9.262;2022-12-08T18:33:34;3.80;99.90
3784;DHT22;1907;49.238;9.262;2022-12-08T18:35:59;3.80;99.90